sensor_id;sensor_type;location;lat;lon;timestamp;temperature;humidity
11944;DHT22;6031;50.220;10.122;2023-05-07T00:00:19;13.20;1.00
11944;DHT22;6031;50.220;10.122;2023-05-07T00:02:45;13.30;1.00
11944;DHT22;6031;50.220;10.122;2023-05-07T00:05:11;13.40;1.00
11944;DHT22;6031;50.220;10.122;2023-05-07T00:07:37;13.50;1.00
11944;DHT22;6031;50.220;10.122;2023-05-07T00:10:03;13.50;1.00
11944;DHT22;6031;50.220;10.122;2023-05-07T00:12:29;13.50;1.00
11944;DHT22;6031;50.220;10.122;2023-05-07T00:14:57;13.50;1.00
11944;DHT22;6031;50.220;10.122;2023-05-07T00:17:22;13.50;1.00
11944;DHT22;6031;50.220;10.122;2023-05-07T00:19:48;13.50;1.00
11944;DHT22;6031;50.220;10.122;2023-05-07T00:22:14;13.50;1.00
11944;DHT22;6031;50.220;10.122;2023-05-07T00:24:39;13.40;1.00
11944;DHT22;6031;50.220;10.122;2023-05-07T00:27:05;13.40;1.00
11944;DHT22;6031;50.220;10.122;2023-05-07T00:29:30;13.50;1.00
11944;DHT22;6031;50.220;10.122;2023-05-07T00:31:56;13.60;1.00
11944;DHT22;6031;50.220;10.122;2023-05-07T00:34:21;13.70;1.00
11944;DHT22;6031;50.220;10.122;2023-05-07T00:36:47;13.60;1.00
11944;DHT22;6031;50.220;10.122;2023-05-07T00:39:13;13.60;1.00
11944;DHT22;6031;50.220;10.122;2023-05-07T00:41:38;13.70;1.00
11944;DHT22;6031;50.220;10.122;2023-05-07T00:44:04;13.60;1.00
11944;DHT22;6031;50.220;10.122;2023-05-07T00:46:30;13.60;1.00
11944;DHT22;6031;50.220;10.122;2023-05-07T00:48:57;13.70;1.00
11944;DHT22;6031;50.220;10.122;2023-05-07T00:51:24;13.60;1.00
11944;DHT22;6031;50.220;10.122;2023-05-07T00:53:50;13.60;1.00
11944;DHT22;6031;50.220;10.122;2023-05-07T00:56:16;13.60;1.00
11944;DHT22;6031;50.220;10.122;2023-05-07T00:58:41;13.60;1.00
11944;DHT22;6031;50.220;10.122;2023-05-07T01:01:07;13.60;1.00
11944;DHT22;6031;50.220;10.122;2023-05-07T01:03:33;13.70;1.00
11944;DHT22;6031;50.220;10.122;2023-05-07T01:05:59;13.80;1.00
11944;DHT22;6031;50.220;10.122;2023-05-07T01:08:25;13.80;1.00
11944;DHT22;6031;50.220;10.122;2023-05-07T01:10:54;13.90;1.00
11944;DHT22;6031;50.220;10.122;2023-05-07T01:13:20;13.90;1.00
11944;DHT22;6031;50.220;10.122;2023-05-07T01:15:46;13.90;1.00
11944;DHT22;6031;50.220;10.122;2023-05-07T01:18:13;13.90;1.00
11944;DHT22;6031;50.220;10.122;2023-05-07T01:20:39;13.80;1.00
11944;DHT22;6031;50.220;10.122;2023-05-07T01:23:05;13.80;1.00
11944;DHT22;6031;50.220;10.122;2023-05-07T01:25:32;13.90;1.00
11944;DHT22;6031;50.220;10.122;2023-05-07T01:27:58;13.90;1.00
11944;DHT22;6031;50.220;10.122;2023-05-07T01:30:25;13.90;1.00
11944;DHT22;6031;50.220;10.122;2023-05-07T01:32:59;14.00;1.00
11944;DHT22;6031;50.220;10.122;2023-05-07T01:35:34;14.00;1.00
11944;DHT22;6031;50.220;10.122;2023-05-07T01:38:02;14.00;1.00
11944;DHT22;6031;50.220;10.122;2023-05-07T01:40:29;14.10;1.00
11944;DHT22;6031;50.220;10.122;2023-05-07T01:42:55;14.00;1.00
11944;DHT22;6031;50.220;10.122;2023-05-07T01:45:21;14.10;1.00
11944;DHT22;6031;50.220;10.122;2023-05-07T01:47:48;14.00;1.00
11944;DHT22;6031;50.220;10.122;2023-05-07T01:50:16;14.00;1.00
11944;DHT22;6031;50.220;10.122;2023-05-07T01:52:43;14.00;1.00
11944;DHT22;6031;50.220;10.122;2023-05-07T01:55:09;13.90;1.00
11944;DHT22;6031;50.220;10.122;2023-05-07T01:57:34;14.00;1.00
11944;DHT22;6031;50.220;10.122;2023-05-07T02:00:00;13.90;1.00
11944;DHT22;6031;50.220;10.122;2023-05-07T02:02:25;13.90;1.00
11944;DHT22;6031;50.220;10.122;2023-05-07T02:04:51;13.90;1.00
11944;DHT22;6031;50.220;10.122;2023-05-07T02:07:16;13.90;1.00
11944;DHT22;6031;50.220;10.122;2023-05-07T02:09:42;14.00;1.00
11944;DHT22;6031;50.220;10.122;2023-05-07T02:12:07;13.90;1.00
11944;DHT22;6031;50.220;10.122;2023-05-07T02:14:32;13.90;1.00
11944;DHT22;6031;50.220;10.122;2023-05-07T02:16:58;13.90;1.00
11944;DHT22;6031;50.220;10.122;2023-05-07T02:19:23;13.90;1.00
11944;DHT22;6031;50.220;10.122;2023-05-07T02:21:49;13.90;1.00
11944;DHT22;6031;50.220;10.122;2023-05-07T02:24:15;13.80;1.00
11944;DHT22;6031;50.220;10.122;2023-05-07T02:26:41;13.80;7.30
11944;DHT22;6031;50.220;10.122;2023-05-07T02:29:06;13.80;1.00
11944;DHT22;6031;50.220;10.122;2023-05-07T02:31:32;13.70;1.00
11944;DHT22;6031;50.220;10.122;2023-05-07T02:33:59;13.70;1.00
11944;DHT22;6031;50.220;10.122;2023-05-07T02:36:25;13.70;1.00
11944;DHT22;6031;50.220;10.122;2023-05-07T02:38:51;13.70;1.00
11944;DHT22;6031;50.220;10.122;2023-05-07T02:41:17;13.60;1.00
11944;DHT22;6031;50.220;10.122;2023-05-07T02:43:43;13.50;95.90
11944;DHT22;6031;50.220;10.122;2023-05-07T02:46:08;13.40;99.90
11944;DHT22;6031;50.220;10.122;2023-05-07T02:48:34;13.50;99.90
11944;DHT22;6031;50.220;10.122;2023-05-07T02:51:00;13.40;99.90
11944;DHT22;6031;50.220;10.122;2023-05-07T02:53:26;13.30;99.90
11944;DHT22;6031;50.220;10.122;2023-05-07T02:55:53;13.20;1.00
11944;DHT22;6031;50.220;10.122;2023-05-07T02:58:19;13.10;1.00
11944;DHT22;6031;50.220;10.122;2023-05-07T03:00:45;13.00;41.80
11944;DHT22;6031;50.220;10.122;2023-05-07T03:03:10;13.00;1.00
11944;DHT22;6031;50.220;10.122;2023-05-07T03:05:36;13.00;99.90
11944;DHT22;6031;50.220;10.122;2023-05-07T03:08:01;13.00;42.70
11944;DHT22;6031;50.220;10.122;2023-05-07T03:10:28;13.00;99.90
11944;DHT22;6031;50.220;10.122;2023-05-07T03:12:53;13.10;1.00
11944;DHT22;6031;50.220;10.122;2023-05-07T03:15:19;13.00;1.00
11944;DHT22;6031;50.220;10.122;2023-05-07T03:17:44;12.90;99.90
11944;DHT22;6031;50.220;10.122;2023-05-07T03:20:10;12.80;99.90
11944;DHT22;6031;50.220;10.122;2023-05-07T03:22:36;12.90;99.90
11944;DHT22;6031;50.220;10.122;2023-05-07T03:25:01;12.90;99.90
11944;DHT22;6031;50.220;10.122;2023-05-07T03:27:27;12.80;99.90
11944;DHT22;6031;50.220;10.122;2023-05-07T03:29:52;12.80;1.00
11944;DHT22;6031;50.220;10.122;2023-05-07T03:32:18;12.70;1.00
11944;DHT22;6031;50.220;10.122;2023-05-07T03:34:43;12.80;1.00
11944;DHT22;6031;50.220;10.122;2023-05-07T03:37:09;12.80;99.90
11944;DHT22;6031;50.220;10.122;2023-05-07T03:39:35;12.90;99.90
11944;DHT22;6031;50.220;10.122;2023-05-07T03:42:00;12.80;99.90
11944;DHT22;6031;50.220;10.122;2023-05-07T03:44:26;12.80;99.90
11944;DHT22;6031;50.220;10.122;2023-05-07T03:46:51;12.70;99.90
11944;DHT22;6031;50.220;10.122;2023-05-07T03:49:17;12.70;1.00
11944;DHT22;6031;50.220;10.122;2023-05-07T03:51:42;12.70;99.90
11944;DHT22;6031;50.220;10.122;2023-05-07T03:54:08;12.80;99.90
11944;DHT22;6031;50.220;10.122;2023-05-07T03:56:34;12.80;99.90
11944;DHT22;6031;50.220;10.122;2023-05-07T03:59:00;12.90;96.80
11944;DHT22;6031;50.220;10.122;2023-05-07T04:01:25;12.90;1.00
11944;DHT22;6031;50.220;10.122;2023-05-07T04:03:51;12.90;1.00
11944;DHT22;6031;50.220;10.122;2023-05-07T04:06:17;13.00;1.00
11944;DHT22;6031;50.220;10.122;2023-05-07T04:08:43;13.00;1.00
11944;DHT22;6031;50.220;10.122;2023-05-07T04:11:08;13.10;1.00
11944;DHT22;6031;50.220;10.122;2023-05-07T04:13:34;13.20;99.90
11944;DHT22;6031;50.220;10.122;2023-05-07T04:16:01;13.20;99.90
11944;DHT22;6031;50.220;10.122;2023-05-07T04:18:27;13.20;99.90
11944;DHT22;6031;50.220;10.122;2023-05-07T04:20:53;13.20;99.90
11944;DHT22;6031;50.220;10.122;2023-05-07T04:23:18;13.30;99.90
11944;DHT22;6031;50.220;10.122;2023-05-07T04:25:44;13.30;1.00
11944;DHT22;6031;50.220;10.122;2023-05-07T04:28:10;13.40;1.00
11944;DHT22;6031;50.220;10.122;2023-05-07T04:30:36;13.50;1.00
11944;DHT22;6031;50.220;10.122;2023-05-07T04:33:02;13.50;1.00
11944;DHT22;6031;50.220;10.122;2023-05-07T04:35:28;13.60;1.00
11944;DHT22;6031;50.220;10.122;2023-05-07T04:37:53;13.60;99.90
11944;DHT22;6031;50.220;10.122;2023-05-07T04:40:19;13.70;99.90
11944;DHT22;6031;50.220;10.122;2023-05-07T04:42:44;13.70;99.90
11944;DHT22;6031;50.220;10.122;2023-05-07T04:45:10;13.80;99.90
11944;DHT22;6031;50.220;10.122;2023-05-07T04:47:36;13.70;99.90
11944;DHT22;6031;50.220;10.122;2023-05-07T04:50:02;13.80;99.90
11944;DHT22;6031;50.220;10.122;2023-05-07T04:52:27;13.90;99.90
11944;DHT22;6031;50.220;10.122;2023-05-07T04:54:53;13.90;99.90
11944;DHT22;6031;50.220;10.122;2023-05-07T04:57:18;13.90;1.00
11944;DHT22;6031;50.220;10.122;2023-05-07T04:59:44;14.00;1.00
11944;DHT22;6031;50.220;10.122;2023-05-07T05:02:10;14.10;1.00
11944;DHT22;6031;50.220;10.122;2023-05-07T05:04:36;14.10;1.00
11944;DHT22;6031;50.220;10.122;2023-05-07T05:07:02;14.20;1.00
11944;DHT22;6031;50.220;10.122;2023-05-07T05:09:28;14.20;1.00
11944;DHT22;6031;50.220;10.122;2023-05-07T05:11:54;14.20;1.00
11944;DHT22;6031;50.220;10.122;2023-05-07T05:14:20;14.40;1.00
11944;DHT22;6031;50.220;10.122;2023-05-07T05:16:45;14.40;1.00
11944;DHT22;6031;50.220;10.122;2023-05-07T05:19:11;14.50;1.00
11944;DHT22;6031;50.220;10.122;2023-05-07T05:21:36;14.50;99.90
11944;DHT22;6031;50.220;10.122;2023-05-07T05:24:02;14.50;99.90
11944;DHT22;6031;50.220;10.122;2023-05-07T05:26:27;14.50;99.90
11944;DHT22;6031;50.220;10.122;2023-05-07T05:28:53;14.50;99.90
11944;DHT22;6031;50.220;10.122;2023-05-07T05:31:18;14.50;99.90
11944;DHT22;6031;50.220;10.122;2023-05-07T05:33:44;14.60;99.90
11944;DHT22;6031;50.220;10.122;2023-05-07T05:36:10;14.70;99.90
11944;DHT22;6031;50.220;10.122;2023-05-07T05:38:36;14.70;99.90
11944;DHT22;6031;50.220;10.122;2023-05-07T05:41:01;14.70;99.90
11944;DHT22;6031;50.220;10.122;2023-05-07T05:43:27;14.80;99.90
11944;DHT22;6031;50.220;10.122;2023-05-07T05:45:52;14.80;99.90
11944;DHT22;6031;50.220;10.122;2023-05-07T05:48:18;14.80;99.90
11944;DHT22;6031;50.220;10.122;2023-05-07T05:50:43;14.70;99.90
11944;DHT22;6031;50.220;10.122;2023-05-07T05:53:09;14.70;99.90
11944;DHT22;6031;50.220;10.122;2023-05-07T05:55:35;14.80;99.90
11944;DHT22;6031;50.220;10.122;2023-05-07T05:58:00;14.90;99.90
11944;DHT22;6031;50.220;10.122;2023-05-07T06:00:26;15.00;95.80
11944;DHT22;6031;50.220;10.122;2023-05-07T06:02:52;14.80;99.90
11944;DHT22;6031;50.220;10.122;2023-05-07T06:05:17;14.90;99.90
11944;DHT22;6031;50.220;10.122;2023-05-07T06:07:43;15.10;99.90
11944;DHT22;6031;50.220;10.122;2023-05-07T06:10:09;15.10;56.10
11944;DHT22;6031;50.220;10.122;2023-05-07T06:12:34;15.20;1.80
11944;DHT22;6031;50.220;10.122;2023-05-07T06:15:00;15.00;32.70
11944;DHT22;6031;50.220;10.122;2023-05-07T06:17:27;15.10;91.60
11944;DHT22;6031;50.220;10.122;2023-05-07T06:19:52;15.20;1.00
11944;DHT22;6031;50.220;10.122;2023-05-07T06:22:18;15.20;1.00
11944;DHT22;6031;50.220;10.122;2023-05-07T06:24:43;15.30;1.00
11944;DHT22;6031;50.220;10.122;2023-05-07T06:27:09;15.50;1.00
11944;DHT22;6031;50.220;10.122;2023-05-07T06:29:34;15.70;1.00
11944;DHT22;6031;50.220;10.122;2023-05-07T06:32:10;15.80;1.00
11944;DHT22;6031;50.220;10.122;2023-05-07T06:34:36;15.60;1.00
11944;DHT22;6031;50.220;10.122;2023-05-07T06:37:01;15.90;1.00
11944;DHT22;6031;50.220;10.122;2023-05-07T06:39:27;15.80;1.00
11944;DHT22;6031;50.220;10.122;2023-05-07T06:41:53;15.70;1.00
11944;DHT22;6031;50.220;10.122;2023-05-07T06:44:18;15.60;1.00
11944;DHT22;6031;50.220;10.122;2023-05-07T06:46:44;15.50;1.00
11944;DHT22;6031;50.220;10.122;2023-05-07T06:49:10;15.50;1.00
11944;DHT22;6031;50.220;10.122;2023-05-07T06:51:36;15.70;1.00
11944;DHT22;6031;50.220;10.122;2023-05-07T06:54:01;15.70;1.00
11944;DHT22;6031;50.220;10.122;2023-05-07T06:56:27;15.80;1.00
11944;DHT22;6031;50.220;10.122;2023-05-07T06:58:52;15.80;1.00
11944;DHT22;6031;50.220;10.122;2023-05-07T07:01:18;15.80;1.00
11944;DHT22;6031;50.220;10.122;2023-05-07T07:03:43;15.70;99.90
11944;DHT22;6031;50.220;10.122;2023-05-07T07:06:09;15.70;1.00
11944;DHT22;6031;50.220;10.122;2023-05-07T07:08:34;15.80;99.90
11944;DHT22;6031;50.220;10.122;2023-05-07T07:11:00;15.90;99.90
11944;DHT22;6031;50.220;10.122;2023-05-07T07:13:25;15.90;1.00
11944;DHT22;6031;50.220;10.122;2023-05-07T07:15:52;16.10;99.90
11944;DHT22;6031;50.220;10.122;2023-05-07T07:18:18;16.30;99.90
11944;DHT22;6031;50.220;10.122;2023-05-07T07:20:44;16.40;99.90
11944;DHT22;6031;50.220;10.122;2023-05-07T07:23:09;16.70;99.90
11944;DHT22;6031;50.220;10.122;2023-05-07T07:25:35;16.60;99.90
11944;DHT22;6031;50.220;10.122;2023-05-07T07:28:00;16.50;99.90
11944;DHT22;6031;50.220;10.122;2023-05-07T07:30:26;16.70;99.90
11944;DHT22;6031;50.220;10.122;2023-05-07T07:32:51;17.00;99.90
11944;DHT22;6031;50.220;10.122;2023-05-07T07:35:18;17.30;40.40
11944;DHT22;6031;50.220;10.122;2023-05-07T07:37:43;17.30;16.30
11944;DHT22;6031;50.220;10.122;2023-05-07T07:40:09;17.50;1.60
11944;DHT22;6031;50.220;10.122;2023-05-07T07:42:35;17.70;1.00
11944;DHT22;6031;50.220;10.122;2023-05-07T07:45:01;17.70;1.00
11944;DHT22;6031;50.220;10.122;2023-05-07T07:47:26;17.70;1.00
11944;DHT22;6031;50.220;10.122;2023-05-07T07:49:51;17.60;1.00
11944;DHT22;6031;50.220;10.122;2023-05-07T07:52:18;17.60;1.00
11944;DHT22;6031;50.220;10.122;2023-05-07T07:54:44;17.40;1.00
11944;DHT22;6031;50.220;10.122;2023-05-07T07:57:10;17.50;1.00
11944;DHT22;6031;50.220;10.122;2023-05-07T07:59:35;17.50;1.00
11944;DHT22;6031;50.220;10.122;2023-05-07T08:02:01;17.70;1.00
11944;DHT22;6031;50.220;10.122;2023-05-07T08:04:26;17.80;1.00
11944;DHT22;6031;50.220;10.122;2023-05-07T08:06:52;17.50;1.00
11944;DHT22;6031;50.220;10.122;2023-05-07T08:09:19;17.80;1.00
11944;DHT22;6031;50.220;10.122;2023-05-07T08:11:45;17.70;1.00
11944;DHT22;6031;50.220;10.122;2023-05-07T08:14:11;17.60;1.00
11944;DHT22;6031;50.220;10.122;2023-05-07T08:16:36;17.70;1.00
11944;DHT22;6031;50.220;10.122;2023-05-07T08:19:02;17.80;1.00
11944;DHT22;6031;50.220;10.122;2023-05-07T08:21:28;17.60;1.00
11944;DHT22;6031;50.220;10.122;2023-05-07T08:23:54;17.70;1.00
11944;DHT22;6031;50.220;10.122;2023-05-07T08:26:19;17.60;1.00
11944;DHT22;6031;50.220;10.122;2023-05-07T08:28:45;17.90;1.00
11944;DHT22;6031;50.220;10.122;2023-05-07T08:31:11;18.10;1.00
11944;DHT22;6031;50.220;10.122;2023-05-07T08:33:36;18.20;1.00
11944;DHT22;6031;50.220;10.122;2023-05-07T08:36:04;18.40;1.00
11944;DHT22;6031;50.220;10.122;2023-05-07T08:38:30;18.80;1.00
11944;DHT22;6031;50.220;10.122;2023-05-07T08:40:56;19.00;1.00
11944;DHT22;6031;50.220;10.122;2023-05-07T08:43:24;19.40;1.00
11944;DHT22;6031;50.220;10.122;2023-05-07T08:45:53;19.50;1.00
11944;DHT22;6031;50.220;10.122;2023-05-07T08:48:22;20.00;1.00
11944;DHT22;6031;50.220;10.122;2023-05-07T08:50:50;20.10;1.00
11944;DHT22;6031;50.220;10.122;2023-05-07T08:53:16;20.30;1.00
11944;DHT22;6031;50.220;10.122;2023-05-07T08:55:43;20.60;1.00
11944;DHT22;6031;50.220;10.122;2023-05-07T08:58:08;20.70;1.00
11944;DHT22;6031;50.220;10.122;2023-05-07T09:00:36;20.40;1.00
11944;DHT22;6031;50.220;10.122;2023-05-07T09:03:02;21.00;1.00
11944;DHT22;6031;50.220;10.122;2023-05-07T09:05:28;20.70;1.00
11944;DHT22;6031;50.220;10.122;2023-05-07T09:07:53;20.80;1.00
11944;DHT22;6031;50.220;10.122;2023-05-07T09:10:21;20.70;1.00
11944;DHT22;6031;50.220;10.122;2023-05-07T09:12:46;20.30;1.00
11944;DHT22;6031;50.220;10.122;2023-05-07T09:15:12;20.40;1.00
11944;DHT22;6031;50.220;10.122;2023-05-07T09:17:37;20.80;1.00
11944;DHT22;6031;50.220;10.122;2023-05-07T09:20:04;20.50;1.00
11944;DHT22;6031;50.220;10.122;2023-05-07T09:22:34;20.80;1.00
11944;DHT22;6031;50.220;10.122;2023-05-07T09:25:01;20.90;1.00
11944;DHT22;6031;50.220;10.122;2023-05-07T09:27:26;20.70;1.00
11944;DHT22;6031;50.220;10.122;2023-05-07T09:29:52;20.70;1.00
11944;DHT22;6031;50.220;10.122;2023-05-07T09:32:17;21.10;1.00
11944;DHT22;6031;50.220;10.122;2023-05-07T09:34:43;21.10;1.00
11944;DHT22;6031;50.220;10.122;2023-05-07T09:37:08;21.00;1.00
11944;DHT22;6031;50.220;10.122;2023-05-07T09:39:44;21.30;1.00
11944;DHT22;6031;50.220;10.122;2023-05-07T09:42:10;21.10;1.00
11944;DHT22;6031;50.220;10.122;2023-05-07T09:44:37;20.80;1.00
11944;DHT22;6031;50.220;10.122;2023-05-07T09:47:05;20.90;1.00
11944;DHT22;6031;50.220;10.122;2023-05-07T09:49:34;21.00;1.00
11944;DHT22;6031;50.220;10.122;2023-05-07T09:52:02;21.10;1.00
11944;DHT22;6031;50.220;10.122;2023-05-07T09:54:28;21.00;1.00
11944;DHT22;6031;50.220;10.122;2023-05-07T09:56:55;21.00;1.00
11944;DHT22;6031;50.220;10.122;2023-05-07T09:59:21;21.50;1.00
11944;DHT22;6031;50.220;10.122;2023-05-07T10:01:48;22.20;1.00
11944;DHT22;6031;50.220;10.122;2023-05-07T10:04:14;22.90;1.00
11944;DHT22;6031;50.220;10.122;2023-05-07T10:06:40;24.30;1.00
11944;DHT22;6031;50.220;10.122;2023-05-07T10:09:07;24.90;1.00
11944;DHT22;6031;50.220;10.122;2023-05-07T10:11:33;25.00;1.00
11944;DHT22;6031;50.220;10.122;2023-05-07T10:14:00;26.30;1.00
11944;DHT22;6031;50.220;10.122;2023-05-07T10:16:34;27.60;1.00
11944;DHT22;6031;50.220;10.122;2023-05-07T10:19:03;28.40;1.00
11944;DHT22;6031;50.220;10.122;2023-05-07T10:21:30;29.20;1.00
11944;DHT22;6031;50.220;10.122;2023-05-07T10:24:04;26.90;1.00
11944;DHT22;6031;50.220;10.122;2023-05-07T10:26:32;26.10;1.00
11944;DHT22;6031;50.220;10.122;2023-05-07T10:29:12;26.70;1.00
11944;DHT22;6031;50.220;10.122;2023-05-07T10:32:14;27.10;1.00
11944;DHT22;6031;50.220;10.122;2023-05-07T10:34:47;27.30;1.00
11944;DHT22;6031;50.220;10.122;2023-05-07T10:37:14;27.10;1.00
11944;DHT22;6031;50.220;10.122;2023-05-07T10:39:40;28.00;1.00
11944;DHT22;6031;50.220;10.122;2023-05-07T10:42:10;28.10;1.00
11944;DHT22;6031;50.220;10.122;2023-05-07T10:44:36;27.90;1.00
11944;DHT22;6031;50.220;10.122;2023-05-07T10:47:10;28.70;1.00
11944;DHT22;6031;50.220;10.122;2023-05-07T10:49:37;29.40;1.00
11944;DHT22;6031;50.220;10.122;2023-05-07T10:52:12;28.90;1.00
11944;DHT22;6031;50.220;10.122;2023-05-07T10:54:42;28.60;1.00
11944;DHT22;6031;50.220;10.122;2023-05-07T10:57:36;28.10;1.00
11944;DHT22;6031;50.220;10.122;2023-05-07T11:00:03;27.50;1.00
11944;DHT22;6031;50.220;10.122;2023-05-07T11:05:24;27.10;1.00
11944;DHT22;6031;50.220;10.122;2023-05-07T11:07:55;27.70;1.00
11944;DHT22;6031;50.220;10.122;2023-05-07T11:10:21;28.20;1.00
11944;DHT22;6031;50.220;10.122;2023-05-07T11:12:47;28.00;99.90
11944;DHT22;6031;50.220;10.122;2023-05-07T11:15:13;27.90;99.90
11944;DHT22;6031;50.220;10.122;2023-05-07T11:17:56;27.60;99.90
11944;DHT22;6031;50.220;10.122;2023-05-07T11:20:45;28.60;99.90
11944;DHT22;6031;50.220;10.122;2023-05-07T11:26:08;27.10;99.90
11944;DHT22;6031;50.220;10.122;2023-05-07T11:28:39;27.30;99.90
11944;DHT22;6031;50.220;10.122;2023-05-07T11:31:05;27.30;99.90
11944;DHT22;6031;50.220;10.122;2023-05-07T11:33:31;26.80;99.90
11944;DHT22;6031;50.220;10.122;2023-05-07T11:35:58;26.80;99.90
11944;DHT22;6031;50.220;10.122;2023-05-07T11:38:25;26.60;99.90
11944;DHT22;6031;50.220;10.122;2023-05-07T11:40:58;27.40;99.90
11944;DHT22;6031;50.220;10.122;2023-05-07T11:43:26;27.90;1.00
11944;DHT22;6031;50.220;10.122;2023-05-07T11:45:51;27.90;99.90
11944;DHT22;6031;50.220;10.122;2023-05-07T11:48:17;27.60;99.90
11944;DHT22;6031;50.220;10.122;2023-05-07T11:53:25;29.00;99.90
11944;DHT22;6031;50.220;10.122;2023-05-07T11:55:57;28.40;99.90
11944;DHT22;6031;50.220;10.122;2023-05-07T11:58:23;27.60;99.90
11944;DHT22;6031;50.220;10.122;2023-05-07T12:00:50;28.40;99.90
11944;DHT22;6031;50.220;10.122;2023-05-07T12:03:15;30.10;99.90
11944;DHT22;6031;50.220;10.122;2023-05-07T12:05:41;29.80;99.90
11944;DHT22;6031;50.220;10.122;2023-05-07T12:08:07;29.10;99.90
11944;DHT22;6031;50.220;10.122;2023-05-07T12:10:33;27.90;99.90
11944;DHT22;6031;50.220;10.122;2023-05-07T12:12:58;27.80;99.90
11944;DHT22;6031;50.220;10.122;2023-05-07T12:15:24;28.20;99.90
11944;DHT22;6031;50.220;10.122;2023-05-07T12:17:50;28.80;99.90
11944;DHT22;6031;50.220;10.122;2023-05-07T12:20:16;29.30;99.90
11944;DHT22;6031;50.220;10.122;2023-05-07T12:22:42;28.00;99.90
11944;DHT22;6031;50.220;10.122;2023-05-07T12:25:08;27.40;99.90
11944;DHT22;6031;50.220;10.122;2023-05-07T12:27:37;26.70;99.90
11944;DHT22;6031;50.220;10.122;2023-05-07T12:30:03;26.70;99.90
11944;DHT22;6031;50.220;10.122;2023-05-07T12:32:29;26.70;99.90
11944;DHT22;6031;50.220;10.122;2023-05-07T12:34:54;27.00;99.90
11944;DHT22;6031;50.220;10.122;2023-05-07T12:37:24;26.60;99.90
11944;DHT22;6031;50.220;10.122;2023-05-07T12:40:06;27.10;99.90
11944;DHT22;6031;50.220;10.122;2023-05-07T12:42:35;26.00;99.90
11944;DHT22;6031;50.220;10.122;2023-05-07T12:45:15;25.80;99.90
11944;DHT22;6031;50.220;10.122;2023-05-07T12:47:47;26.00;99.90
11944;DHT22;6031;50.220;10.122;2023-05-07T12:50:14;26.50;99.90
11944;DHT22;6031;50.220;10.122;2023-05-07T12:52:39;26.40;99.90
11944;DHT22;6031;50.220;10.122;2023-05-07T12:55:06;26.30;99.90
11944;DHT22;6031;50.220;10.122;2023-05-07T12:57:39;26.00;99.90
11944;DHT22;6031;50.220;10.122;2023-05-07T13:00:06;26.00;99.90
11944;DHT22;6031;50.220;10.122;2023-05-07T13:02:33;26.20;99.90
11944;DHT22;6031;50.220;10.122;2023-05-07T13:04:59;26.00;99.90
11944;DHT22;6031;50.220;10.122;2023-05-07T13:07:25;25.90;99.90
11944;DHT22;6031;50.220;10.122;2023-05-07T13:09:51;25.80;99.90
11944;DHT22;6031;50.220;10.122;2023-05-07T13:12:16;26.40;99.90
11944;DHT22;6031;50.220;10.122;2023-05-07T13:14:42;26.90;99.90
11944;DHT22;6031;50.220;10.122;2023-05-07T13:17:07;26.30;99.90
11944;DHT22;6031;50.220;10.122;2023-05-07T13:19:33;25.60;99.90
11944;DHT22;6031;50.220;10.122;2023-05-07T13:21:58;25.90;99.90
11944;DHT22;6031;50.220;10.122;2023-05-07T13:24:23;25.90;99.90
11944;DHT22;6031;50.220;10.122;2023-05-07T13:26:49;25.80;99.90
11944;DHT22;6031;50.220;10.122;2023-05-07T13:29:15;26.20;99.90
11944;DHT22;6031;50.220;10.122;2023-05-07T13:31:41;26.00;99.90
11944;DHT22;6031;50.220;10.122;2023-05-07T13:34:09;26.10;99.90
11944;DHT22;6031;50.220;10.122;2023-05-07T13:36:34;25.60;99.90
11944;DHT22;6031;50.220;10.122;2023-05-07T13:39:03;25.40;99.90
11944;DHT22;6031;50.220;10.122;2023-05-07T13:41:28;25.70;99.90
11944;DHT22;6031;50.220;10.122;2023-05-07T13:43:54;25.90;99.90
11944;DHT22;6031;50.220;10.122;2023-05-07T13:46:20;26.30;99.90
11944;DHT22;6031;50.220;10.122;2023-05-07T13:48:45;26.40;99.90
11944;DHT22;6031;50.220;10.122;2023-05-07T13:51:11;25.80;99.90
11944;DHT22;6031;50.220;10.122;2023-05-07T13:53:36;25.60;99.90
11944;DHT22;6031;50.220;10.122;2023-05-07T13:56:02;25.60;99.90
11944;DHT22;6031;50.220;10.122;2023-05-07T13:58:29;25.80;99.90
11944;DHT22;6031;50.220;10.122;2023-05-07T14:00:55;25.90;99.90
11944;DHT22;6031;50.220;10.122;2023-05-07T14:03:20;25.70;99.90
11944;DHT22;6031;50.220;10.122;2023-05-07T14:05:46;25.50;99.90
11944;DHT22;6031;50.220;10.122;2023-05-07T14:08:12;25.70;99.90
11944;DHT22;6031;50.220;10.122;2023-05-07T14:10:41;26.40;99.90
11944;DHT22;6031;50.220;10.122;2023-05-07T14:13:07;26.60;99.90
11944;DHT22;6031;50.220;10.122;2023-05-07T14:15:32;26.70;99.90
11944;DHT22;6031;50.220;10.122;2023-05-07T14:17:58;26.10;99.90
11944;DHT22;6031;50.220;10.122;2023-05-07T14:20:25;25.90;99.90
11944;DHT22;6031;50.220;10.122;2023-05-07T14:22:50;25.50;99.90
11944;DHT22;6031;50.220;10.122;2023-05-07T14:25:16;25.60;99.90
11944;DHT22;6031;50.220;10.122;2023-05-07T14:27:41;26.10;99.90
11944;DHT22;6031;50.220;10.122;2023-05-07T14:30:07;26.30;99.90
11944;DHT22;6031;50.220;10.122;2023-05-07T14:32:33;26.20;99.90
11944;DHT22;6031;50.220;10.122;2023-05-07T14:34:59;26.20;99.90
11944;DHT22;6031;50.220;10.122;2023-05-07T14:37:25;26.00;99.90
11944;DHT22;6031;50.220;10.122;2023-05-07T14:39:50;25.30;99.90
11944;DHT22;6031;50.220;10.122;2023-05-07T14:42:16;24.80;99.90
11944;DHT22;6031;50.220;10.122;2023-05-07T14:44:42;24.80;99.90
11944;DHT22;6031;50.220;10.122;2023-05-07T14:47:07;24.70;99.90
11944;DHT22;6031;50.220;10.122;2023-05-07T14:49:33;24.70;99.90
11944;DHT22;6031;50.220;10.122;2023-05-07T14:51:59;25.10;99.90
11944;DHT22;6031;50.220;10.122;2023-05-07T14:54:25;25.30;99.90
11944;DHT22;6031;50.220;10.122;2023-05-07T14:56:51;25.70;99.90
11944;DHT22;6031;50.220;10.122;2023-05-07T14:59:17;25.70;99.90
11944;DHT22;6031;50.220;10.122;2023-05-07T15:01:48;25.90;99.90
11944;DHT22;6031;50.220;10.122;2023-05-07T15:04:14;25.40;99.90
11944;DHT22;6031;50.220;10.122;2023-05-07T15:06:40;25.00;99.90
11944;DHT22;6031;50.220;10.122;2023-05-07T15:09:05;24.80;99.90
11944;DHT22;6031;50.220;10.122;2023-05-07T15:11:31;24.90;99.90
11944;DHT22;6031;50.220;10.122;2023-05-07T15:13:56;24.60;99.90
11944;DHT22;6031;50.220;10.122;2023-05-07T15:16:22;24.20;99.90
11944;DHT22;6031;50.220;10.122;2023-05-07T15:18:48;24.30;99.90
11944;DHT22;6031;50.220;10.122;2023-05-07T15:21:14;24.20;99.90
11944;DHT22;6031;50.220;10.122;2023-05-07T15:23:40;23.90;99.90
11944;DHT22;6031;50.220;10.122;2023-05-07T15:26:06;23.80;99.90
11944;DHT22;6031;50.220;10.122;2023-05-07T15:28:32;23.70;99.90
11944;DHT22;6031;50.220;10.122;2023-05-07T15:30:58;23.60;99.90
11944;DHT22;6031;50.220;10.122;2023-05-07T15:33:24;23.60;99.90
11944;DHT22;6031;50.220;10.122;2023-05-07T15:35:49;23.80;99.90
11944;DHT22;6031;50.220;10.122;2023-05-07T15:38:15;23.70;99.90
11944;DHT22;6031;50.220;10.122;2023-05-07T15:40:41;23.80;99.90
11944;DHT22;6031;50.220;10.122;2023-05-07T15:43:11;24.00;99.90